Kedves Pilóták, Oktatók, Növendékek!

Az alábbi menüpontban szeretnénk összefoglalni néhány fontos és hasznos információt, linket, amely segíthet a repülések megtervezésében.

Ha bármilyen javaslatod van a tartalommal kapcsolatban, kérlek Ez az e-mail-cím a szpemrobotok elleni védelem alatt áll. Megtekintéséhez engedélyeznie kell a JavaScript használatát.meg nekünk.

 

Jó leszállást!

Repüléssel kapcsolatos hírek

2022. október 01.

Felhőkép 

Felhőkép

Széltérkép

Széltérkép

Győr-Pér Repülőtér

Élő webkamera kép

 Nagyobb kép

Győr-Pér Repülőtér

[Source: ADDS]
METAR
LHPR 011515Z AUTO 27003KT 9999 OVC042 15/12 Q1012 NOSIG =
LHPR 011415Z 0115/0124 29008KT 8000 BKN030 TEMPO 0115/0124 26004KT PROB40 TEMPO 0115/0124 32012KT BECMG 0115/0118 CAVOK TEMPO 0116/0120 8000 -SHRA SCT040 BKN060 PROB30 TEMPO 0117/0119 5000 SHRA SCT030TCU BKN050
TAF
LHPR 011415Z 0115/0124 29008KT 8000 BKN030 TEMPO 0115/0124 26004KT PROB40 TEMPO 0115/0124 32012KT BECMG 0115/0118 CAVOK TEMPO 0116/0120 8000 -SHRA SCT040 BKN060 PROB30 TEMPO 0117/0119 5000 SHRA SCT030TCU BKN050 =
SR / SS: 04:47 / 16:29 UTC (Napkelte / Napnyugta 2022-10-01)

Kapcsolat

Telephely:     9099 Pér, Repülõtér

Klubhelyiség: 9021 Gyõr, Városház tér 3.

E-mail: info@aeroclub-gyor.hu

Telefon: 06-20-777-9106

Adószám: 19113832-2-08

JSN Metro template designed by JoomlaShine.com